Boryslau — ENLB — position and weather

sailwx.info

Track history (hours):
 
Tides and Currents Weather Stations Pressure Air Temp Water Temp Dewpoint Dewpoint Depression Visibility Wind Speed Wind Dir Waves Ship Positions

Boryslau

Last reported at 2016-Dec-10 00:33 UTC. Time now 2016-Dec-10 01:16 UTC.
Position N 44°42' E 020°58'.

Length 86 m; draft 2.3 m.

Type: Cargo ship. MMSI: 272088700.

Date/timePositionNaut miles runAvg speedWind from/ knotsBaromVisibWave heightAir tempDewpointWater temp
2016-Dec-10 00:33N 44°42' E 020°58'0 0.0
2016-Dec-09 23:33N 44°42' E 020°58'0 0.0
2016-Dec-09 22:33N 44°42' E 020°58'0 0.0
2016-Dec-09 21:33N 44°42' E 020°58'0 0.0
2016-Dec-09 20:33N 44°42' E 020°58'0 0.0
2016-Dec-09 19:33N 44°42' E 020°58'0 0.0
2016-Dec-09 18:34N 44°42' E 020°58'0 0.0
2016-Dec-09 17:33N 44°42' E 020°58'0 0.0
2016-Dec-09 16:33N 44°42' E 020°58'0 0.0
2016-Dec-09 15:33N 44°42' E 020°58'0 0.0
2016-Dec-09 14:33N 44°42' E 020°58'0 0.0
2016-Dec-09 13:33N 44°42' E 020°58'0 0.1
2016-Dec-09 12:29N 44°42' E 020°58'1 0.4
2016-Dec-09 10:30N 44°42' E 020°58'0 0.0
2016-Dec-09 09:33N 44°42' E 020°58'0 0.0
2016-Dec-09 08:33N 44°42' E 020°58'0 0.0
2016-Dec-09 07:33N 44°42' E 020°58'0 0.0
2016-Dec-09 06:32N 44°42' E 020°58'0 0.0
2016-Dec-09 05:33N 44°42' E 020°58'0 0.0
2016-Dec-09 04:33N 44°42' E 020°58'0 0.0
2016-Dec-09 03:33N 44°42' E 020°58'0 0.0
2016-Dec-09 02:33N 44°42' E 020°58'0 0.0
2016-Dec-09 01:33N 44°42' E 020°58'0 0.0
2016-Dec-09 00:33N 44°42' E 020°58'0 0.0
2016-Dec-08 23:33N 44°42' E 020°58'0 0.0
2016-Dec-08 22:33N 44°42' E 020°58'0 0.0
2016-Dec-08 21:33N 44°42' E 020°58'0 0.0
2016-Dec-08 20:34N 44°42' E 020°58'0 0.0
2016-Dec-08 19:33N 44°42' E 020°58'0 0.0
2016-Dec-08 18:33N 44°42' E 020°58'0 0.0
2016-Dec-08 17:34N 44°42' E 020°58'0 0.0
2016-Dec-08 16:34N 44°42' E 020°58'0 0.0
2016-Dec-08 15:33N 44°42' E 020°58'0 0.0
2016-Dec-08 14:33N 44°42' E 020°58'0 0.0
2016-Dec-08 13:27N 44°42' E 020°58'0 0.0
2016-Dec-08 12:32N 44°42' E 020°58'0 0.0
2016-Dec-08 11:28N 44°42' E 020°58'0 0.0
2016-Dec-08 10:24N 44°42' E 020°58'0 0.0
2016-Dec-08 08:23N 44°42' E 020°58'0 0.0
2016-Dec-08 05:16N 44°42' E 020°58'0 0.0
2016-Dec-08 04:06N 44°42' E 020°58'0 0.0
2016-Dec-08 03:31N 44°42' E 020°58'0 0.0
2016-Dec-08 01:12N 44°42' E 020°58'0 0.0
2016-Dec-07 23:16N 44°42' E 020°58'0 0.0
2016-Dec-07 22:18N 44°42' E 020°58'0 0.0
2016-Dec-07 20:33N 44°42' E 020°58'0 0.0
2016-Dec-07 19:33N 44°42' E 020°58'0 0.0
2016-Dec-07 18:33N 44°42' E 020°58'0 0.0
2016-Dec-07 17:34N 44°42' E 020°58'0 0.0
2016-Dec-07 16:33N 44°42' E 020°58'0 0.0
2016-Dec-07 15:34N 44°42' E 020°58'0 0.0
2016-Dec-07 14:33N 44°42' E 020°58'0 0.0
2016-Dec-07 13:33N 44°42' E 020°58'0 0.0
2016-Dec-07 08:33N 44°42' E 020°58'0 0.0
2016-Dec-07 07:09N 44°42' E 020°58'0 0.5
2016-Dec-07 06:24N 44°43' E 020°59'3 3.1
2016-Dec-07 05:28N 44°43' E 021°03'43 1.3
2016-Dec-05 20:34N 44°35' E 022°02'3 3.1
2016-Dec-05 19:33N 44°32' E 022°03'3 3.3
2016-Dec-05 18:33N 44°29' E 022°06'3 3.3
2016-Dec-05 17:33N 44°29' E 022°10'12 2.9
2016-Dec-05 13:15N 44°39' E 022°18'3 3.7
2016-Dec-05 12:31N 44°41' E 022°22'4 3.7
2016-Dec-05 11:32N 44°43' E 022°26'3 3.5
2016-Dec-05 10:34N 44°41' E 022°30'1 1.2
2016-Dec-05 09:34N 44°40' E 022°32'0 0.2
2016-Dec-05 08:33N 44°40' E 022°32'1 1.3
2016-Dec-05 07:34N 44°39' E 022°33'0 0.0
2016-Dec-05 06:33N 44°39' E 022°33'0 0.0
2016-Dec-05 05:33N 44°39' E 022°33'0 0.0
2016-Dec-05 04:34N 44°39' E 022°33'2 1.6
2016-Dec-05 03:33N 44°38' E 022°35'2 1.6
2016-Dec-05 02:33N 44°37' E 022°37'3 3.3
2016-Dec-05 01:33N 44°37' E 022°41'3 3.4
2016-Dec-05 00:33N 44°34' E 022°45'2 2.4
2016-Dec-04 23:33N 44°32' E 022°45'3 2.5
2016-Dec-04 22:33N 44°31' E 022°42'3 3.0
2016-Dec-04 21:33N 44°33' E 022°38'3 2.6
2016-Dec-04 20:33N 44°33' E 022°34'3 2.8
2016-Dec-04 19:33N 44°30' E 022°33'3 2.8
2016-Dec-04 18:33N 44°29' E 022°30'2 2.0
2016-Dec-04 17:33N 44°27' E 022°28'3 2.8
2016-Dec-04 16:33N 44°25' E 022°30'3 2.9
2016-Dec-04 15:33N 44°22' E 022°31'3 2.9
2016-Dec-04 14:33N 44°20' E 022°32'2 1.8
2016-Dec-04 13:33N 44°18' E 022°34'1 1.4
2016-Dec-04 12:33N 44°18' E 022°36'2 2.5
2016-Dec-04 11:33N 44°17' E 022°39'3 2.5
2016-Dec-04 10:33N 44°15' E 022°41'2 2.4
2016-Dec-04 09:33N 44°13' E 022°41'2 2.4
2016-Dec-04 08:33N 44°12' E 022°44'2 2.3
2016-Dec-04 07:33N 44°11' E 022°46'3 2.7
2016-Dec-04 06:33N 44°09' E 022°49'3 2.5
2016-Dec-04 05:33N 44°08' E 022°52'3 2.5
2016-Dec-04 04:33N 44°06' E 022°55'2 2.4
2016-Dec-04 03:33N 44°06' E 022°58'3 2.7
2016-Dec-04 02:33N 44°05' E 023°02'2 2.2
2016-Dec-04 01:33N 44°03' E 023°02'2 2.4
2016-Dec-04 00:32N 44°01' E 023°01'3 2.6
2016-Dec-03 23:33N 44°00' E 022°57'3 2.6
2016-Dec-03 22:33N 43°60' E 022°54'3 2.5
2016-Dec-03 21:32N 43°57' E 022°52'3 2.8
2016-Dec-03 20:33N 43°55' E 022°51'3 2.7
2016-Dec-03 19:33N 43°52' E 022°51'3 2.6
2016-Dec-03 18:33N 43°50' E 022°53'3 2.7
2016-Dec-03 17:33N 43°49' E 022°57'3 2.6
2016-Dec-03 16:12N 43°48' E 023°01'  
Track history (hours):
 
Tides and Currents Weather Stations Pressure Air Temp Water Temp Dewpoint Dewpoint Depression Visibility Wind Speed Wind Dir Waves Ship Positions

Boryslau

Last reported at 2016-Dec-10 00:33 UTC. Time now 2016-Dec-10 01:16 UTC.
Position N 44°42' E 020°58'.

Length 86 m; draft 2.3 m.

Type: Cargo ship. MMSI: 272088700.

Date/timePositionNaut miles runAvg speedWind from/ knotsBaromVisibWave heightAir tempDewpointWater temp
2016-Dec-10 00:33N 44°42' E 020°58'0 0.0
2016-Dec-09 23:33N 44°42' E 020°58'0 0.0
2016-Dec-09 22:33N 44°42' E 020°58'0 0.0
2016-Dec-09 21:33N 44°42' E 020°58'0 0.0
2016-Dec-09 20:33N 44°42' E 020°58'0 0.0
2016-Dec-09 19:33N 44°42' E 020°58'0 0.0
2016-Dec-09 18:34N 44°42' E 020°58'0 0.0
2016-Dec-09 17:33N 44°42' E 020°58'0 0.0
2016-Dec-09 16:33N 44°42' E 020°58'0 0.0
2016-Dec-09 15:33N 44°42' E 020°58'0 0.0
2016-Dec-09 14:33N 44°42' E 020°58'0 0.0
2016-Dec-09 13:33N 44°42' E 020°58'0 0.1
2016-Dec-09 12:29N 44°42' E 020°58'1 0.4
2016-Dec-09 10:30N 44°42' E 020°58'0 0.0
2016-Dec-09 09:33N 44°42' E 020°58'0 0.0
2016-Dec-09 08:33N 44°42' E 020°58'0 0.0
2016-Dec-09 07:33N 44°42' E 020°58'0 0.0
2016-Dec-09 06:32N 44°42' E 020°58'0 0.0
2016-Dec-09 05:33N 44°42' E 020°58'0 0.0
2016-Dec-09 04:33N 44°42' E 020°58'0 0.0
2016-Dec-09 03:33N 44°42' E 020°58'0 0.0
2016-Dec-09 02:33N 44°42' E 020°58'0 0.0
2016-Dec-09 01:33N 44°42' E 020°58'0 0.0
2016-Dec-09 00:33N 44°42' E 020°58'0 0.0
2016-Dec-08 23:33N 44°42' E 020°58'0 0.0
2016-Dec-08 22:33N 44°42' E 020°58'0 0.0
2016-Dec-08 21:33N 44°42' E 020°58'0 0.0
2016-Dec-08 20:34N 44°42' E 020°58'0 0.0
2016-Dec-08 19:33N 44°42' E 020°58'0 0.0
2016-Dec-08 18:33N 44°42' E 020°58'0 0.0
2016-Dec-08 17:34N 44°42' E 020°58'0 0.0
2016-Dec-08 16:34N 44°42' E 020°58'0 0.0
2016-Dec-08 15:33N 44°42' E 020°58'0 0.0
2016-Dec-08 14:33N 44°42' E 020°58'0 0.0
2016-Dec-08 13:27N 44°42' E 020°58'0 0.0
2016-Dec-08 12:32N 44°42' E 020°58'0 0.0
2016-Dec-08 11:28N 44°42' E 020°58'0 0.0
2016-Dec-08 10:24N 44°42' E 020°58'0 0.0
2016-Dec-08 08:23N 44°42' E 020°58'0 0.0
2016-Dec-08 05:16N 44°42' E 020°58'0 0.0
2016-Dec-08 04:06N 44°42' E 020°58'0 0.0
2016-Dec-08 03:31N 44°42' E 020°58'0 0.0
2016-Dec-08 01:12N 44°42' E 020°58'0 0.0
2016-Dec-07 23:16N 44°42' E 020°58'0 0.0
2016-Dec-07 22:18N 44°42' E 020°58'0 0.0
2016-Dec-07 20:33N 44°42' E 020°58'0 0.0
2016-Dec-07 19:33N 44°42' E 020°58'0 0.0
2016-Dec-07 18:33N 44°42' E 020°58'0 0.0
2016-Dec-07 17:34N 44°42' E 020°58'0 0.0
2016-Dec-07 16:33N 44°42' E 020°58'0 0.0
2016-Dec-07 15:34N 44°42' E 020°58'0 0.0
2016-Dec-07 14:33N 44°42' E 020°58'0 0.0
2016-Dec-07 13:33N 44°42' E 020°58'0 0.0
2016-Dec-07 08:33N 44°42' E 020°58'0 0.0
2016-Dec-07 07:09N 44°42' E 020°58'0 0.5
2016-Dec-07 06:24N 44°43' E 020°59'3 3.1
2016-Dec-07 05:28N 44°43' E 021°03'43 1.3
2016-Dec-05 20:34N 44°35' E 022°02'3 3.1
2016-Dec-05 19:33N 44°32' E 022°03'3 3.3
2016-Dec-05 18:33N 44°29' E 022°06'3 3.3
2016-Dec-05 17:33N 44°29' E 022°10'12 2.9
2016-Dec-05 13:15N 44°39' E 022°18'3 3.7
2016-Dec-05 12:31N 44°41' E 022°22'4 3.7
2016-Dec-05 11:32N 44°43' E 022°26'3 3.5
2016-Dec-05 10:34N 44°41' E 022°30'1 1.2
2016-Dec-05 09:34N 44°40' E 022°32'0 0.2
2016-Dec-05 08:33N 44°40' E 022°32'1 1.3
2016-Dec-05 07:34N 44°39' E 022°33'0 0.0
2016-Dec-05 06:33N 44°39' E 022°33'0 0.0
2016-Dec-05 05:33N 44°39' E 022°33'0 0.0
2016-Dec-05 04:34N 44°39' E 022°33'2 1.6
2016-Dec-05 03:33N 44°38' E 022°35'2 1.6
2016-Dec-05 02:33N 44°37' E 022°37'3 3.3
2016-Dec-05 01:33N 44°37' E 022°41'3 3.4
2016-Dec-05 00:33N 44°34' E 022°45'2 2.4
2016-Dec-04 23:33N 44°32' E 022°45'3 2.5
2016-Dec-04 22:33N 44°31' E 022°42'3 3.0
2016-Dec-04 21:33N 44°33' E 022°38'3 2.6
2016-Dec-04 20:33N 44°33' E 022°34'3 2.8
2016-Dec-04 19:33N 44°30' E 022°33'3 2.8
2016-Dec-04 18:33N 44°29' E 022°30'2 2.0
2016-Dec-04 17:33N 44°27' E 022°28'3 2.8
2016-Dec-04 16:33N 44°25' E 022°30'3 2.9
2016-Dec-04 15:33N 44°22' E 022°31'3 2.9
2016-Dec-04 14:33N 44°20' E 022°32'2 1.8
2016-Dec-04 13:33N 44°18' E 022°34'1 1.4
2016-Dec-04 12:33N 44°18' E 022°36'2 2.5
2016-Dec-04 11:33N 44°17' E 022°39'3 2.5
2016-Dec-04 10:33N 44°15' E 022°41'2 2.4
2016-Dec-04 09:33N 44°13' E 022°41'2 2.4
2016-Dec-04 08:33N 44°12' E 022°44'2 2.3
2016-Dec-04 07:33N 44°11' E 022°46'3 2.7
2016-Dec-04 06:33N 44°09' E 022°49'3 2.5
2016-Dec-04 05:33N 44°08' E 022°52'3 2.5
2016-Dec-04 04:33N 44°06' E 022°55'2 2.4
2016-Dec-04 03:33N 44°06' E 022°58'3 2.7
2016-Dec-04 02:33N 44°05' E 023°02'2 2.2
2016-Dec-04 01:33N 44°03' E 023°02'2 2.4
2016-Dec-04 00:32N 44°01' E 023°01'3 2.6
2016-Dec-03 23:33N 44°00' E 022°57'3 2.6
2016-Dec-03 22:33N 43°60' E 022°54'3 2.5
2016-Dec-03 21:32N 43°57' E 022°52'3 2.8
2016-Dec-03 20:33N 43°55' E 022°51'3 2.7
2016-Dec-03 19:33N 43°52' E 022°51'3 2.6
2016-Dec-03 18:33N 43°50' E 022°53'3 2.7
2016-Dec-03 17:33N 43°49' E 022°57'3 2.6
2016-Dec-03 16:12N 43°48' E 023°01'  

Dump ship's entire track history